Time;durP1;ratioP1;P1;durP2;ratioP2;P2;SDS_P1;SDS_P2;PMS_P1;PMS_P2;Temp;Humidity;BMP_temperature;BMP_pressure;BME280_temperature;BME280_humidity;BME280_pressure;Samples;Min_cycle;Max_cycle;Signal;HPM_P1;HPM_P2
2022/06/29 00:01:59;;;;;;;4.28;2.35;;;;;;;15.46;100.00;164608.94;5012468;28;20038;-59
2022/06/29 00:04:24;;;;;;;1.83;1.70;;;;;;;15.42;100.00;164596.75;5014038;28;20030;-59
2022/06/29 00:06:49;;;;;;;6.53;2.70;;;;;;;15.38;100.00;164587.25;4993275;28;20042;-59
2022/06/29 00:09:15;;;;;;;5.68;2.38;;;;;;;15.33;100.00;164575.13;4994381;28;20045;-59
2022/06/29 00:11:40;;;;;;;2.33;1.80;;;;;;;15.28;100.00;164560.22;4996577;28;20049;-60
2022/06/29 00:14:05;;;;;;;3.22;1.58;;;;;;;15.23;100.00;164549.38;5003874;28;20030;-61
2022/06/29 00:16:31;;;;;;;5.07;1.60;;;;;;;15.16;100.00;164530.41;5008566;28;20050;-61
2022/06/29 00:18:56;;;;;;;2.58;1.95;;;;;;;15.14;100.00;164525.03;5013500;28;20025;-63
2022/06/29 00:21:22;;;;;;;10.18;2.40;;;;;;;15.11;100.00;164516.91;5012084;28;20053;-63
2022/06/29 00:23:47;;;;;;;2.92;1.70;;;;;;;15.05;100.00;164500.66;5013780;28;20032;-61
2022/06/29 00:26:12;;;;;;;3.92;2.55;;;;;;;14.99;100.00;164485.75;5004425;28;20699;-61
2022/06/29 00:28:38;;;;;;;3.95;2.40;;;;;;;14.95;100.00;164474.97;5004695;28;20022;-61
2022/06/29 00:31:03;;;;;;;5.43;3.65;;;;;;;14.91;100.00;164464.09;4991312;28;20046;-61
2022/06/29 00:33:28;;;;;;;3.28;2.13;;;;;;;14.88;100.00;164457.34;4992828;28;20030;-61
2022/06/29 00:35:53;;;;;;;3.90;2.35;;;;;;;14.86;100.00;164450.59;4991304;28;20049;-61
2022/06/29 00:38:19;;;;;;;2.95;1.90;;;;;;;14.81;100.00;164438.41;4992719;28;20033;-61
2022/06/29 00:40:44;;;;;;;4.60;2.67;;;;;;;14.75;100.00;164422.16;4991206;28;20046;-61
2022/06/29 00:43:10;;;;;;;6.43;2.78;;;;;;;14.72;100.00;164415.41;4991848;28;20031;-60
2022/06/29 00:45:35;;;;;;;3.50;2.88;;;;;;;14.69;100.00;164405.94;4998225;28;20409;-60
2022/06/29 00:48:01;;;;;;;3.90;2.72;;;;;;;14.65;100.00;164396.41;5010595;28;20052;-60
2022/06/29 00:50:31;;;;;;;6.85;1.70;;;;;;;14.63;100.00;164389.66;4991118;28;20046;-60
2022/06/29 00:53:02;;;;;;;2.83;2.63;;;;;;;14.62;100.00;164386.94;4992211;28;20044;-61
2022/06/29 00:55:30;;;;;;;4.35;3.40;;;;;;;14.63;100.00;164389.66;4997081;28;20129;-60
2022/06/29 00:57:57;;;;;;;7.28;2.90;;;;;;;14.63;100.00;164389.66;5011681;28;20086;-60
2022/06/29 01:00:23;;;;;;;4.15;2.55;;;;;;;14.65;100.00;164395.03;5010395;28;20045;-61
2022/06/29 01:02:49;;;;;;;9.52;3.90;;;;;;;14.64;100.00;164393.72;5011953;28;20038;-61
2022/06/29 01:05:15;;;;;;;3.90;2.33;;;;;;;14.62;100.00;164386.94;5005527;28;20124;-60
2022/06/29 01:07:40;;;;;;;5.97;2.47;;;;;;;14.62;100.00;164386.94;4992939;28;20465;-60
2022/06/29 01:10:06;;;;;;;8.02;3.17;;;;;;;14.59;100.00;164381.53;5002658;28;20050;-60
2022/06/29 01:12:32;;;;;;;4.00;2.78;;;;;;;14.58;100.00;164378.81;5004300;28;20025;-60
2022/06/29 01:14:58;;;;;;;10.50;4.20;;;;;;;14.53;100.00;164365.28;5008109;28;20061;-61
2022/06/29 01:17:24;;;;;;;4.43;2.95;;;;;;;14.50;100.00;164357.16;4992453;28;20033;-60
2022/06/29 01:19:50;;;;;;;2.88;2.67;;;;;;;14.44;100.00;164340.94;4990448;28;20022;-60
2022/06/29 01:22:18;;;;;;;4.32;2.75;;;;;;;14.44;100.00;164340.94;4991843;28;20109;-60
2022/06/29 01:24:45;;;;;;;7.85;4.38;;;;;;;14.42;100.00;164336.88;4990561;28;20026;-60
2022/06/29 01:27:15;;;;;;;9.32;2.95;;;;;;;14.41;100.00;164332.78;4962451;28;1029851;-62
2022/06/29 01:29:41;;;;;;;6.85;2.72;;;;;;;14.39;100.00;164328.75;4991763;28;20058;-62
2022/06/29 01:32:07;;;;;;;3.63;2.95;;;;;;;14.40;100.00;164330.13;4992647;28;20370;-62
2022/06/29 01:34:33;;;;;;;3.58;3.25;;;;;;;14.38;100.00;164324.72;4993665;28;20026;-62
2022/06/29 01:36:59;;;;;;;4.63;3.40;;;;;;;14.37;100.00;164322.00;4991046;28;20042;-63
2022/06/29 01:39:26;;;;;;;3.03;2.70;;;;;;;14.37;100.00;164322.00;4996822;28;20157;-62
2022/06/29 01:41:51;;;;;;;4.07;3.53;;;;;;;14.34;100.00;164313.84;5006906;28;20057;-60
2022/06/29 01:44:17;;;;;;;3.55;2.92;;;;;;;14.33;100.00;164311.19;5012005;28;20055;-60
2022/06/29 01:46:42;;;;;;;5.05;3.75;;;;;;;14.34;100.00;164313.84;4991301;28;20057;-60
2022/06/29 01:49:07;;;;;;;6.95;3.15;;;;;;;14.32;100.00;164308.47;4992078;28;20029;-60
2022/06/29 01:51:33;;;;;;;6.07;3.15;;;;;;;14.29;100.00;164301.72;5004331;28;20048;-60
2022/06/29 01:53:59;;;;;;;4.90;3.42;;;;;;;14.26;100.00;164294.91;5009247;28;20024;-60
2022/06/29 01:56:24;;;;;;;5.68;3.72;;;;;;;14.22;100.00;164284.13;5005847;28;20054;-60
2022/06/29 01:58:49;;;;;;;3.63;3.25;;;;;;;14.23;100.00;164286.81;5012082;28;20497;-60
2022/06/29 02:01:15;;;;;;;9.60;2.72;;;;;;;14.24;100.00;164289.53;5010426;28;20042;-60
2022/06/29 02:03:40;;;;;;;4.47;4.07;;;;;;;14.26;100.00;164293.59;5011187;28;20033;-59
2022/06/29 02:06:06;;;;;;;3.45;3.15;;;;;;;14.26;100.00;164293.59;4996164;28;20046;-59
2022/06/29 02:08:31;;;;;;;3.80;3.15;;;;;;;14.22;100.00;164284.13;4992203;28;20135;-59
2022/06/29 02:11:00;;;;;;;5.45;3.15;;;;;;;14.22;100.00;164284.13;4990609;28;20046;-59
2022/06/29 02:13:26;;;;;;;4.15;3.67;;;;;;;14.19;100.00;164275.97;4992379;28;20034;-59
2022/06/29 02:15:51;;;;;;;5.80;3.20;;;;;;;14.18;100.00;164273.31;5002027;28;20068;-59
2022/06/29 02:18:16;;;;;;;6.93;4.30;;;;;;;14.15;100.00;164265.19;4995946;28;20037;-61
2022/06/29 02:20:42;;;;;;;9.18;3.30;;;;;;;14.14;100.00;164262.47;5008048;28;20132;-62
2022/06/29 02:23:07;;;;;;;4.53;3.08;;;;;;;14.11;100.00;164254.38;5011372;28;20026;-62
2022/06/29 02:25:32;;;;;;;6.03;3.90;;;;;;;14.08;100.00;164247.56;5000915;28;20042;-62
2022/06/29 02:27:58;;;;;;;7.65;3.85;;;;;;;14.06;100.00;164240.81;4992840;28;20387;-62
2022/06/29 02:34:43;;;;;;;6.63;3.70;;;;;;;14.05;100.00;164238.09;5009806;28;20045;-61
2022/06/29 02:35:52;;;;;;;3.38;3.17;;;;;;;13.99;100.00;164221.88;5001379;28;20072;-61
2022/06/29 02:38:18;;;;;;;4.32;3.20;;;;;;;13.94;100.00;164211.09;5010964;28;20385;-59
2022/06/29 02:40:44;;;;;;;3.38;2.83;;;;;;;13.87;100.00;164192.16;5009458;28;20037;-59
2022/06/29 02:43:10;;;;;;;5.25;3.40;;;;;;;13.82;100.00;164178.59;5010367;28;20025;-59
2022/06/29 02:45:35;;;;;;;5.25;3.63;;;;;;;13.78;100.00;164169.13;4999334;28;20128;-59
2022/06/29 02:48:01;;;;;;;6.75;3.65;;;;;;;13.72;100.00;164151.56;4995948;28;20018;-59
2022/06/29 02:50:26;;;;;;;6.75;4.20;;;;;;;13.69;100.00;164143.44;4990034;28;20042;-59
2022/06/29 02:52:51;;;;;;;9.32;3.92;;;;;;;13.66;100.00;164135.34;4991364;28;20026;-59
2022/06/29 02:55:17;;;;;;;5.18;3.92;;;;;;;13.64;100.00;164132.63;4995175;28;20072;-60
2022/06/29 02:57:42;;;;;;;3.80;3.25;;;;;;;13.68;100.00;164140.72;5010542;28;20392;-60
2022/06/29 03:00:08;;;;;;;4.45;3.47;;;;;;;13.68;100.00;164142.09;5009255;28;20041;-59
2022/06/29 03:02:33;;;;;;;4.50;3.42;;;;;;;13.68;100.00;164140.72;5010623;28;20032;-60
2022/06/29 03:04:59;;;;;;;4.68;4.15;;;;;;;13.67;100.00;164138.00;5004479;28;20038;-59
2022/06/29 03:07:26;;;;;;;5.07;4.13;;;;;;;13.63;100.00;164128.53;4993548;28;20014;-60
2022/06/29 03:09:51;;;;;;;4.88;3.55;;;;;;;13.65;100.00;164133.97;5009048;28;20091;-59
2022/06/29 03:12:17;;;;;;;7.15;3.65;;;;;;;13.67;100.00;164138.00;5010052;28;20084;-57
2022/06/29 03:14:42;;;;;;;6.63;4.38;;;;;;;13.67;100.00;164139.41;5014184;28;20380;-60
2022/06/29 03:17:07;;;;;;;5.20;4.80;;;;;;;13.64;100.00;164132.63;5020154;28;20037;-59
2022/06/29 03:19:33;;;;;;;4.18;3.55;;;;;;;13.64;100.00;164131.25;5016101;28;20025;-59
2022/06/29 03:21:58;;;;;;;5.53;3.83;;;;;;;13.58;100.00;164116.41;5011541;28;20045;-59
2022/06/29 03:24:23;;;;;;;6.57;3.60;;;;;;;13.53;100.00;164102.88;5016294;28;20377;-57
2022/06/29 03:26:49;;;;;;;5.03;4.53;;;;;;;13.49;100.00;164093.41;5014981;28;20056;-59
2022/06/29 03:29:14;;;;;;;6.28;4.10;;;;;;;13.47;100.00;164088.03;5019822;28;20017;-58
2022/06/29 03:31:40;;;;;;;4.47;4.07;;;;;;;13.47;100.00;164088.03;5019427;28;20048;-59
2022/06/29 03:34:05;;;;;;;3.67;3.38;;;;;;;13.47;100.00;164086.66;5015080;28;20076;-59
2022/06/29 03:36:30;;;;;;;5.72;3.88;;;;;;;13.44;100.00;164078.56;5009909;28;20077;-59
2022/06/29 03:38:56;;;;;;;3.50;3.20;;;;;;;13.40;100.00;164069.09;5019644;28;20445;-59
2022/06/29 03:41:21;;;;;;;5.78;3.83;;;;;;;13.36;100.00;164056.88;5015863;28;20038;-59
2022/06/29 03:43:46;;;;;;;6.15;4.22;;;;;;;13.37;100.00;164060.91;5024543;28;20033;-59
2022/06/29 03:46:12;;;;;;;8.93;4.90;;;;;;;13.38;100.00;164062.25;5017608;28;20165;-59
2022/06/29 03:48:37;;;;;;;5.85;4.50;;;;;;;13.39;100.00;164066.38;4990516;28;20100;-59
2022/06/29 03:51:02;;;;;;;5.47;4.53;;;;;;;13.42;100.00;164073.13;4992185;28;20137;-60
2022/06/29 03:53:28;;;;;;;4.57;4.28;;;;;;;13.42;100.00;164073.13;4990863;28;20022;-60
2022/06/29 03:55:53;;;;;;;4.30;3.88;;;;;;;13.37;100.00;164060.91;4995936;28;20080;-60
2022/06/29 03:58:19;;;;;;;5.45;4.93;;;;;;;13.36;100.00;164056.88;5010339;28;20026;-60
2022/06/29 04:00:44;;;;;;;6.88;5.18;;;;;;;13.37;100.00;164059.53;5008946;28;20037;-60
2022/06/29 04:03:09;;;;;;;8.18;4.72;;;;;;;13.37;100.00;164059.53;5009548;28;20030;-61
2022/06/29 04:05:35;;;;;;;4.90;4.50;;;;;;;13.38;100.00;164063.69;4995722;28;20038;-60
2022/06/29 04:08:00;;;;;;;4.85;4.35;;;;;;;13.42;100.00;164074.47;4998914;28;20401;-59
2022/06/29 04:10:25;;;;;;;4.05;3.65;;;;;;;13.31;100.00;164044.69;4988997;28;20042;-61
2022/06/29 04:12:51;;;;;;;6.63;4.38;;;;;;;13.44;100.00;164078.56;4990912;28;20022;-56
2022/06/29 04:15:16;;;;;;;6.85;4.78;;;;;;;13.45;100.00;164082.59;4990694;28;20516;-57
2022/06/29 04:17:41;;;;;;;6.68;4.78;;;;;;;13.47;100.00;164086.66;4990101;28;20382;-56
2022/06/29 04:20:07;;;;;;;5.90;3.75;;;;;;;13.48;100.00;164089.34;4991258;28;20069;-56
2022/06/29 04:22:33;;;;;;;5.43;4.55;;;;;;;13.53;100.00;164102.88;4994206;28;20030;-56
2022/06/29 04:24:59;;;;;;;8.07;6.13;;;;;;;13.56;100.00;164111.00;4991716;28;20041;-57
2022/06/29 04:27:24;;;;;;;10.50;5.70;;;;;;;13.58;100.00;164116.41;5004481;28;20042;-56
2022/06/29 04:29:50;;;;;;;13.15;7.15;;;;;;;13.60;100.00;164120.47;5010946;28;20032;-56
2022/06/29 04:32:15;;;;;;;6.32;5.55;;;;;;;13.61;100.00;164124.50;4994809;28;20022;-57
2022/06/29 04:34:41;;;;;;;6.45;5.85;;;;;;;13.64;100.00;164132.63;5010225;28;20029;-56
2022/06/29 04:37:06;;;;;;;6.80;5.45;;;;;;;13.70;100.00;164146.16;4996440;28;20026;-57
2022/06/29 04:39:32;;;;;;;8.32;4.72;;;;;;;13.76;100.00;164162.38;5000269;28;20029;-57
2022/06/29 04:41:57;;;;;;;5.25;4.75;;;;;;;13.81;100.00;164175.94;5011608;28;20038;-56
2022/06/29 04:44:25;;;;;;;5.55;5.03;;;;;;;13.87;100.00;164192.16;5013217;28;20037;-56
2022/06/29 04:46:50;;;;;;;5.30;4.85;;;;;;;13.92;100.00;164205.66;5011515;28;20042;-56
2022/06/29 04:49:16;;;;;;;5.65;4.95;;;;;;;14.00;100.00;164224.59;5012904;28;20357;-57
2022/06/29 04:51:41;;;;;;;9.40;4.70;;;;;;;14.05;100.00;164238.09;5011733;28;20481;-56
2022/06/29 04:54:06;;;;;;;9.00;5.20;;;;;;;14.15;100.00;164265.19;5012345;28;20076;-56
2022/06/29 04:56:34;;;;;;;4.78;4.38;;;;;;;14.21;100.00;164281.41;5011754;28;20120;-56
2022/06/29 04:59:00;;;;;;;5.13;4.65;;;;;;;14.28;100.00;164300.34;5012679;28;20030;-56
2022/06/29 05:01:27;;;;;;;7.60;4.35;;;;;;;14.38;100.00;164324.72;5009901;28;20501;-56
2022/06/29 05:03:53;;;;;;;5.35;4.72;;;;;;;14.44;100.00;164340.94;5012836;28;20048;-56
2022/06/29 05:06:22;;;;;;;6.78;5.85;;;;;;;14.54;100.00;164368.00;5016785;28;20041;-56
2022/06/29 05:08:48;;;;;;;6.82;4.78;;;;;;;14.63;100.00;164389.66;5019169;28;20029;-57
2022/06/29 05:11:15;;;;;;;8.68;5.32;;;;;;;14.71;100.00;164411.31;5023063;28;20051;-58
2022/06/29 05:13:41;;;;;;;7.15;4.55;;;;;;;14.81;100.00;164438.41;5020483;28;20116;-58
2022/06/29 05:16:07;;;;;;;7.50;4.72;;;;;;;14.96;100.00;164476.28;5020729;28;20060;-58
2022/06/29 05:18:33;;;;;;;7.25;5.15;;;;;;;15.04;100.00;164499.28;5022062;28;20025;-56
2022/06/29 05:20:59;;;;;;;6.95;4.95;;;;;;;15.14;100.00;164525.03;5019608;28;20117;-56
2022/06/29 05:23:25;;;;;;;5.75;4.20;;;;;;;15.25;100.00;164552.09;5022580;28;20503;-57
2022/06/29 05:25:51;;;;;;;9.48;4.82;;;;;;;15.37;100.00;164584.59;5020346;28;20037;-58
2022/06/29 05:28:16;;;;;;;7.05;4.85;;;;;;;15.47;100.00;164611.66;5021038;28;20167;-58
2022/06/29 05:30:41;;;;;;;6.85;5.75;;;;;;;15.60;100.00;164644.16;5020209;28;20041;-56
2022/06/29 05:33:07;;;;;;;6.82;4.82;;;;;;;15.70;100.00;164671.22;5014249;28;20481;-56
2022/06/29 05:35:33;;;;;;;5.40;4.85;;;;;;;15.81;100.00;164701.03;5011046;28;20397;-56
2022/06/29 05:38:01;;;;;;;6.70;4.10;;;;;;;15.94;100.00;164733.56;5012100;28;20026;-56
2022/06/29 05:40:28;;;;;;;4.47;3.63;;;;;;;16.09;100.00;164774.19;5010666;28;20057;-58
2022/06/29 05:42:53;;;;;;;10.27;4.10;;;;;;;16.16;100.00;164793.16;5012310;28;20038;-57
2022/06/29 05:45:19;;;;;;;6.20;5.13;;;;;;;16.30;100.00;164828.34;5010550;28;20447;-56
2022/06/29 05:47:44;;;;;;;3.95;3.65;;;;;;;16.43;100.00;164863.56;5011806;28;20037;-56
2022/06/29 05:50:10;;;;;;;4.20;3.78;;;;;;;16.56;100.00;164896.09;5010633;28;20069;-56
2022/06/29 05:52:36;;;;;;;6.25;3.38;;;;;;;16.67;100.00;164925.88;5012209;28;20029;-56
2022/06/29 05:55:05;;;;;;;4.47;3.83;;;;;;;16.79;100.00;164958.38;5010049;28;20524;-56
2022/06/29 05:57:30;;;;;;;10.80;3.63;;;;;;;16.95;100.00;164999.06;5012000;28;20060;-57
2022/06/29 05:59:56;;;;;;;4.95;3.35;;;;;;;17.06;100.00;165027.53;5010220;28;20128;-57
2022/06/29 06:02:21;;;;;;;5.97;3.97;;;;;;;17.20;100.00;165064.13;5011553;28;20022;-56
2022/06/29 06:04:47;;;;;;;8.50;4.20;;;;;;;17.34;100.00;165102.06;5010370;28;20025;-56
2022/06/29 06:07:12;;;;;;;4.07;3.22;;;;;;;17.46;100.00;165133.25;5011625;28;20022;-56
2022/06/29 06:09:37;;;;;;;13.77;4.43;;;;;;;17.62;100.00;165175.25;5010024;28;20386;-57
2022/06/29 06:12:03;;;;;;;6.13;3.88;;;;;;;17.73;100.00;165205.09;5011711;28;20022;-56
2022/06/29 06:14:28;;;;;;;9.88;3.55;;;;;;;17.88;100.00;165243.03;5011704;28;20033;-56
2022/06/29 06:16:54;;;;;;;7.30;3.78;;;;;;;18.07;100.00;165294.59;5009803;28;20042;-57
2022/06/29 06:19:19;;;;;;;9.75;3.15;;;;;;;18.24;100.00;165338.00;5011611;28;20026;-57
2022/06/29 06:21:44;;;;;;;4.10;3.55;;;;;;;18.43;100.00;165386.81;5010195;28;20482;-56
2022/06/29 06:24:10;;;;;;;5.80;3.50;;;;;;;18.58;100.00;165427.47;5010955;28;20426;-56
2022/06/29 06:26:35;;;;;;;2.90;2.70;;;;;;;18.78;100.00;165479.03;5009885;28;20056;-56
2022/06/29 06:29:01;;;;;;;6.20;2.78;;;;;;;18.92;100.00;165517.06;5011346;28;20025;-56
2022/06/29 06:31:27;;;;;;;6.50;2.67;;;;;;;19.12;100.00;165569.97;5009997;28;20045;-56
2022/06/29 06:33:53;;;;;;;4.97;3.80;;;;;;;19.37;100.00;165633.72;5011656;28;20049;-57
2022/06/29 06:36:18;;;;;;;6.78;2.67;;;;;;;19.70;100.00;165720.53;5009785;28;20493;-57
2022/06/29 06:38:44;;;;;;;7.15;2.47;;;;;;;20.08;100.00;165822.38;5011251;28;20033;-56
2022/06/29 06:41:27;;;;;;;7.03;3.22;;;;;;;20.36;100.00;165894.34;5009727;28;20122;-56
2022/06/29 06:43:54;;;;;;;2.53;2.33;;;;;;;20.40;100.00;165906.50;5011010;28;20449;-59
2022/06/29 06:46:20;;;;;;;3.20;2.85;;;;;;;20.26;100.00;165869.88;5009692;28;20122;-56
2022/06/29 06:48:45;;;;;;;3.10;2.08;;;;;;;20.39;100.00;165902.44;5011304;28;20018;-57
2022/06/29 06:51:12;;;;;;;3.60;2.38;;;;;;;20.41;100.00;165907.88;5009925;28;20038;-56
2022/06/29 06:53:38;;;;;;;4.82;2.90;;;;;;;20.57;100.00;165951.34;5010796;28;20034;-56
2022/06/29 06:56:04;;;;;;;3.90;2.60;;;;;;;20.71;100.00;165986.63;5009550;28;20044;-58
2022/06/29 06:58:29;;;;;;;3.70;2.28;;;;;;;20.72;100.00;165989.34;5011047;28;20393;-56
2022/06/29 07:00:54;;;;;;;4.57;2.17;;;;;;;20.86;100.00;166027.41;5009043;28;20038;-57
2022/06/29 07:03:20;;;;;;;2.95;2.22;;;;;;;21.09;100.00;166087.16;5010819;28;20040;-56
2022/06/29 07:05:45;;;;;;;7.97;2.90;;;;;;;21.35;100.00;166155.03;5009548;28;20045;-57
2022/06/29 07:08:10;;;;;;;2.55;2.35;;;;;;;21.45;100.00;166180.81;5010478;28;20358;-57
2022/06/29 07:10:36;;;;;;;4.68;2.38;;;;;;;21.63;100.00;166228.47;5009344;28;20049;-56
2022/06/29 07:13:01;;;;;;;5.28;2.88;;;;;;;21.87;100.00;166293.63;5010784;28;20029;-56
2022/06/29 07:15:26;;;;;;;5.85;3.08;;;;;;;22.13;100.00;166360.19;5009074;28;20099;-57
2022/06/29 07:17:52;;;;;;;5.80;2.33;;;;;;;22.32;100.00;166410.47;5010674;28;20052;-57
2022/06/29 07:20:17;;;;;;;7.07;2.80;;;;;;;22.42;100.00;166437.72;5009161;28;20042;-56
2022/06/29 07:22:42;;;;;;;7.65;3.15;;;;;;;22.50;100.00;166459.47;5010659;28;20033;-56
2022/06/29 07:25:08;;;;;;;5.18;2.47;;;;;;;22.51;100.00;166460.81;5009042;28;20127;-57
2022/06/29 07:27:33;;;;;;;7.47;3.28;;;;;;;22.46;100.00;166448.56;5010565;28;20132;-56
2022/06/29 07:29:59;;;;;;;6.85;2.55;;;;;;;22.45;100.00;166445.84;5008765;28;20053;-57
2022/06/29 07:32:25;;;;;;;4.95;2.58;;;;;;;22.53;100.00;166464.88;5010927;28;20018;-57
2022/06/29 07:34:51;;;;;;;6.10;2.80;;;;;;;22.72;100.00;166515.16;5009237;28;20109;-56
2022/06/29 07:37:16;;;;;;;3.55;2.50;;;;;;;22.84;100.00;166547.81;5010359;28;20026;-56
2022/06/29 07:39:42;;;;;;;5.15;2.28;;;;;;;22.82;100.00;166542.34;5009242;28;20030;-57
2022/06/29 07:42:07;;;;;;;5.05;2.22;;;;;;;22.76;100.00;166527.38;5010459;28;20030;-57
2022/06/29 07:44:32;;;;;;;1.50;1.40;;;;;;;22.56;100.00;166473.03;5010253;28;20384;-56
2022/06/29 07:46:58;;;;;;;6.25;2.20;;;;;;;22.44;100.00;166443.16;5008792;28;20052;-57
2022/06/29 07:49:23;;;;;;;2.17;1.92;;;;;;;22.32;100.00;166410.47;5010462;28;20021;-56
2022/06/29 07:51:49;;;;;;;3.25;2.40;;;;;;;22.13;100.00;166361.59;5008838;28;20181;-57
2022/06/29 07:54:15;;;;;;;6.15;1.80;;;;;;;22.04;100.00;166337.13;5010993;28;20551;-56
2022/06/29 07:56:41;;;;;;;4.65;2.30;;;;;;;21.94;100.00;166309.94;5012927;28;20041;-57
2022/06/29 07:59:06;;;;;;;7.13;3.15;;;;;;;21.89;100.00;166296.34;5013428;28;20096;-56
2022/06/29 08:01:31;;;;;;;4.55;2.50;;;;;;;21.86;100.00;166290.91;5013010;28;20045;-57
2022/06/29 08:03:57;;;;;;;5.53;2.03;;;;;;;21.84;100.00;166284.13;5013794;28;20354;-57
2022/06/29 08:06:24;;;;;;;6.40;2.63;;;;;;;21.89;100.00;166297.75;5012497;28;20038;-56
2022/06/29 08:08:49;;;;;;;6.75;2.58;;;;;;;21.98;100.00;166320.81;5013918;28;20541;-56
2022/06/29 08:11:15;;;;;;;5.00;2.72;;;;;;;22.02;100.00;166333.06;5012312;28;20042;-57
2022/06/29 08:13:40;;;;;;;2.72;1.80;;;;;;;22.04;100.00;166337.13;5013710;28;20030;-57
2022/06/29 08:16:09;;;;;;;5.32;2.60;;;;;;;22.09;100.00;166349.34;5012374;28;20033;-57
2022/06/29 08:18:35;;;;;;;3.33;1.75;;;;;;;22.21;100.00;166380.59;5013876;28;20026;-57
2022/06/29 08:21:02;;;;;;;3.03;2.58;;;;;;;22.24;100.00;166390.13;5012081;28;20046;-56
2022/06/29 08:23:27;;;;;;;5.72;2.97;;;;;;;22.33;100.00;166413.19;5014004;28;20026;-57
2022/06/29 08:25:53;;;;;;;2.20;2.00;;;;;;;22.41;100.00;166435.00;5012173;28;20053;-55
2022/06/29 08:28:18;;;;;;;7.25;2.90;;;;;;;22.39;100.00;166428.22;5013770;28;20461;-56
2022/06/29 08:30:44;;;;;;;4.30;2.05;;;;;;;22.35;100.00;166418.66;5012005;28;20565;-56
2022/06/29 08:33:09;;;;;;;2.75;2.17;;;;;;;22.32;100.00;166410.47;5013414;28;20101;-57
2022/06/29 08:35:35;;;;;;;5.75;3.13;;;;;;;22.26;100.00;166394.16;5012291;28;20053;-57
2022/06/29 08:38:00;;;;;;;4.22;2.17;;;;;;;22.17;100.00;166372.44;5012931;28;20079;-57
2022/06/29 08:40:26;;;;;;;2.53;1.73;;;;;;;22.13;100.00;166361.59;5012256;28;20034;-57
2022/06/29 08:42:55;;;;;;;3.13;1.83;;;;;;;22.15;100.00;166365.66;5013355;28;20033;-57
2022/06/29 08:45:20;;;;;;;6.13;2.53;;;;;;;22.15;100.00;166366.97;5011720;28;20482;-57
2022/06/29 08:47:46;;;;;;;2.97;1.95;;;;;;;22.24;100.00;166388.72;5013498;28;20105;-57
2022/06/29 08:50:12;;;;;;;5.75;1.85;;;;;;;22.29;100.00;166403.69;5011641;28;20062;-57
2022/06/29 08:52:39;;;;;;;6.20;2.42;;;;;;;22.53;100.00;166464.88;5012986;28;20057;-57
2022/06/29 08:55:06;;;;;;;8.05;4.53;;;;;;;22.93;100.00;166572.28;5011554;28;20382;-57
2022/06/29 08:57:38;;;;;;;2.50;2.05;;;;;;;23.28;100.00;166663.34;5013173;28;20129;-57
2022/06/29 09:00:06;;;;;;;6.05;2.90;;;;;;;23.90;100.00;166827.88;5011141;28;20041;-57
2022/06/29 09:02:31;;;;;;;4.50;2.10;;;;;;;24.58;100.00;167006.09;5001218;28;20117;-57
2022/06/29 09:04:57;;;;;;;4.72;2.20;;;;;;;24.75;100.00;167049.69;4998987;28;20572;-57
2022/06/29 09:07:23;;;;;;;8.15;2.30;;;;;;;24.77;100.00;167055.09;5012651;28;20096;-57
2022/06/29 09:10:07;;;;;;;3.40;1.90;;;;;;;24.61;100.00;167014.25;5011380;28;20470;-57
2022/06/29 09:12:33;;;;;;;3.88;2.83;;;;;;;24.67;100.00;167030.66;5013173;28;20053;-57
2022/06/29 09:14:59;;;;;;;9.25;3.50;;;;;;;24.47;100.00;166976.16;5010758;28;20127;-57
2022/06/29 09:17:26;;;;;;;5.28;2.28;;;;;;;24.24;100.00;166917.69;5012586;28;20116;-57
2022/06/29 09:19:56;;;;;;;8.48;2.40;;;;;;;24.29;100.00;166929.94;5002336;28;20053;-57
2022/06/29 09:22:22;;;;;;;5.60;2.67;;;;;;;24.33;100.00;166940.81;4993039;28;20022;-57
2022/06/29 09:24:48;;;;;;;4.05;2.00;;;;;;;24.27;100.00;166924.50;4991552;28;20033;-57
2022/06/29 09:27:13;;;;;;;5.30;2.55;;;;;;;24.25;100.00;166919.03;5011381;28;20050;-57
2022/06/29 09:29:41;;;;;;;3.95;2.20;;;;;;;24.27;100.00;166924.50;5010710;28;20025;-57
2022/06/29 09:32:09;;;;;;;;;;;;;;;24.24;100.00;166916.31;5012605;28;20026;-57
2022/06/29 09:34:39;;;;;;;5.78;2.03;;;;;;;24.08;100.00;166874.16;5012642;28;19920;-57
2022/06/29 09:37:07;;;;;;;2.75;1.50;;;;;;;23.87;100.00;166818.34;4990601;28;20058;-57
2022/06/29 09:39:39;;;;;;;8.80;2.60;;;;;;;23.77;100.00;166793.91;4992694;28;20034;-57
2022/06/29 09:42:16;;;;;;;4.05;1.70;;;;;;;23.71;100.00;166777.59;4991101;28;20125;-56
2022/06/29 09:44:42;;;;;;;2.38;1.95;;;;;;;23.61;100.00;166750.38;4990805;28;20514;-57
2022/06/29 09:47:15;;;;;;;3.53;2.13;;;;;;;23.56;100.00;166736.81;5012117;28;20030;-57
2022/06/29 09:49:42;;;;;;;6.93;2.00;;;;;;;23.53;100.00;166728.63;5010439;28;20030;-56
2022/06/29 09:52:07;;;;;;;5.20;3.42;;;;;;;23.48;100.00;166715.03;5011561;28;20025;-57
2022/06/29 09:54:37;;;;;;;3.58;2.03;;;;;;;23.48;100.00;166715.03;5011921;28;20022;-57
2022/06/29 09:57:03;;;;;;;5.07;2.20;;;;;;;23.37;100.00;166687.84;5010304;28;20042;-58
2022/06/29 10:05:07;;;;;;;2.45;2.05;;;;;;;23.41;100.00;166698.75;5010148;28;20048;-57
2022/06/29 10:07:35;;;;;;;4.70;2.15;;;;;;;23.53;100.00;166729.97;5011973;28;20022;-57
2022/06/29 10:10:02;;;;;;;4.07;2.08;;;;;;;23.58;100.00;166742.22;5007166;28;20409;-57
2022/06/29 10:16:00;;;;;;;1.85;1.67;;;;;;;23.81;100.00;166803.44;4988648;28;20532;-58
2022/06/29 10:18:54;;;;;;;2.55;1.70;;;;;;;23.93;100.00;166834.75;4991559;28;20105;-58
2022/06/29 10:21:24;;;;;;;4.20;3.80;;;;;;;24.04;100.00;166864.66;4983167;28;20051;-58
2022/06/29 10:23:51;;;;;;;4.75;3.33;;;;;;;24.08;100.00;166875.56;4972875;28;20110;-58
2022/06/29 10:29:17;;;;;;;18.35;3.95;;;;;;;24.19;100.00;166904.13;4975433;28;20466;-58
2022/06/29 10:31:51;;;;;;;3.20;2.88;;;;;;;24.26;100.00;166921.75;4988514;28;20084;-58
2022/06/29 10:35:05;;;;;;;5.07;2.47;;;;;;;24.21;100.00;166908.19;4978905;28;20037;-58
2022/06/29 10:37:24;;;;;;;3.38;2.67;;;;;;;24.21;100.00;166908.19;4970769;28;20170;-57
2022/06/29 10:39:49;;;;;;;6.70;2.95;;;;;;;24.21;100.00;166908.19;4973722;28;20101;-58
2022/06/29 10:45:12;;;;;;;6.32;2.95;;;;;;;24.27;100.00;166924.50;4989645;28;20045;-58
2022/06/29 10:47:39;;;;;;;4.82;2.95;;;;;;;24.23;100.00;166913.63;4991382;28;20022;-58
2022/06/29 10:50:20;;;;;;;5.72;3.47;;;;;;;24.04;100.00;166864.66;4989668;28;20038;-58
2022/06/29 10:52:47;;;;;;;3.28;2.97;;;;;;;24.04;100.00;166863.31;4982529;28;20030;-58
2022/06/29 10:55:13;;;;;;;4.50;2.75;;;;;;;24.05;100.00;166867.38;4970425;28;20038;-58
2022/06/29 10:57:42;;;;;;;7.32;3.85;;;;;;;23.95;100.00;166840.16;4971499;28;20423;-58
2022/06/29 11:00:09;;;;;;;3.17;2.88;;;;;;;23.87;100.00;166818.34;4970361;28;20101;-59
2022/06/29 11:02:38;;;;;;;2.90;2.60;;;;;;;23.95;100.00;166840.16;4972056;28;20054;-58
2022/06/29 11:05:04;;;;;;;7.15;2.80;;;;;;;23.97;100.00;166845.63;4969855;28;20053;-58
2022/06/29 11:12:58;;;;;;;4.00;2.80;;;;;;;24.13;100.00;166887.75;4979557;28;20069;-59
2022/06/29 11:18:07;;;;;;;3.05;2.38;;;;;;;24.20;100.00;166906.78;4988649;28;20220;-58
2022/06/29 11:20:33;;;;;;;3.28;2.60;;;;;;;24.26;100.00;166921.75;4989562;28;20043;-58
2022/06/29 11:22:58;;;;;;;2.42;2.15;;;;;;;24.12;100.00;166883.69;4989548;28;20045;-58
2022/06/29 11:25:24;;;;;;;4.80;2.28;;;;;;;24.28;100.00;166927.22;4989334;28;20070;-58
2022/06/29 11:27:49;;;;;;;5.03;2.45;;;;;;;24.62;100.00;167016.97;4990917;28;20042;-58
2022/06/29 11:30:22;;;;;;;6.57;2.33;;;;;;;25.13;100.00;167150.38;4993671;28;20042;-58
2022/06/29 11:32:49;;;;;;;3.83;2.33;;;;;;;25.81;100.00;167331.41;4993542;28;20742;-58
2022/06/29 11:35:16;;;;;;;6.22;2.45;;;;;;;26.26;100.00;167449.84;4992630;28;20105;-58
2022/06/29 11:37:49;;;;;;;5.35;2.33;;;;;;;26.66;100.00;167553.34;4995077;28;20034;-58
2022/06/29 11:40:18;;;;;;;6.18;1.85;;;;;;;26.98;100.00;167637.84;4993467;28;20536;-58